Time;durP1;ratioP1;P1;durP2;ratioP2;P2;SDS_P1;SDS_P2;PMS_P1;PMS_P2;Temp;Humidity;BMP_temperature;BMP_pressure;BME280_temperature;BME280_humidity;BME280_pressure;Samples;Min_cycle;Max_cycle;Signal;HPM_P1;HPM_P2
2021/12/14 00:02:11;;;;;;;21.60;14.90;;;;;;;;;;106111;1285;64916;-26
2021/12/14 00:04:39;;;;;;;21.60;14.10;;;;;;;;;;106138;1287;64731;-26
2021/12/14 00:07:08;;;;;;;19.90;13.80;;;;;;;;;;106156;1286;64860;-27
2021/12/14 00:09:39;;;;;;;20.20;13.20;;;;;;;;;;106132;1287;64850;-28
2021/12/14 00:17:12;;;;;;;19.40;13.90;;;;;;;;;;106093;1286;64846;-30
2021/12/14 00:19:39;;;;;;;20.60;14.10;;;;;;;;;;106196;1287;64865;-29
2021/12/14 00:22:19;;;;;;;20.60;13.70;;;;;;;;;;106188;1286;64796;-27
2021/12/14 00:24:47;;;;;;;18.80;13.60;;;;;;;;;;106223;1286;65599;-29
2021/12/14 00:27:17;;;;;;;20.50;13.60;;;;;;;;;;106195;1287;64745;-30
2021/12/14 00:29:50;;;;;;;19.80;13.40;;;;;;;;;;106115;1286;64774;-32
2021/12/14 00:32:20;;;;;;;17.60;13.50;;;;;;;;;;106182;1286;64877;-28
2021/12/14 00:34:48;;;;;;;21.30;13.60;;;;;;;;;;106178;1286;64825;-26
2021/12/14 00:37:18;;;;;;;19.70;13.40;;;;;;;;;;106223;1285;64758;-28
2021/12/14 00:39:45;;;;;;;19.40;13.50;;;;;;;;;;106176;1289;64810;-28
2021/12/14 00:42:12;;;;;;;19.60;13.90;;;;;;;;;;106144;1287;64887;-29
2021/12/14 00:44:39;;;;;;;18.70;12.80;;;;;;;;;;106206;1285;64730;-32
2021/12/14 00:47:06;;;;;;;17.70;12.90;;;;;;;;;;106177;1287;64862;-30
2021/12/14 00:49:33;;;;;;;18.00;12.90;;;;;;;;;;106101;1289;64751;-29
2021/12/14 00:52:00;;;;;;;19.20;12.80;;;;;;;;;;106194;1285;64768;-30
2021/12/14 00:54:27;;;;;;;17.00;12.70;;;;;;;;;;106189;1285;64899;-29
2021/12/14 00:56:55;;;;;;;19.20;13.60;;;;;;;;;;106110;1283;64877;-28
2021/12/14 00:59:22;;;;;;;19.50;13.20;;;;;;;;;;106173;1287;64715;-27
2021/12/14 01:01:54;;;;;;;20.00;13.60;;;;;;;;;;106228;1289;64732;-29
2021/12/14 01:04:32;;;;;;;18.40;13.20;;;;;;;;;;106183;1282;64871;-29
2021/12/14 01:07:00;;;;;;;18.60;13.70;;;;;;;;;;106215;1285;64838;-29
2021/12/14 01:09:30;;;;;;;18.30;13.40;;;;;;;;;;106236;1285;65497;-28
2021/12/14 01:12:02;;;;;;;18.40;12.60;;;;;;;;;;106122;1287;64935;-30
2021/12/14 01:14:42;;;;;;;19.20;13.80;;;;;;;;;;106236;1288;64850;-28
2021/12/14 01:17:14;;;;;;;19.00;13.50;;;;;;;;;;106107;1290;64748;-29
2021/12/14 01:19:42;;;;;;;19.20;13.50;;;;;;;;;;106123;1288;64692;-31
2021/12/14 01:22:32;;;;;;;18.20;13.20;;;;;;;;;;106225;1286;64771;-26
2021/12/14 01:25:08;;;;;;;19.00;12.50;;;;;;;;;;106175;1291;64757;-30
2021/12/14 01:27:48;;;;;;;16.90;13.10;;;;;;;;;;106105;1287;64855;-30
2021/12/14 01:30:23;;;;;;;17.40;12.20;;;;;;;;;;106197;1287;64805;-28
2021/12/14 01:32:51;;;;;;;17.30;12.90;;;;;;;;;;105997;1290;64888;-28
2021/12/14 01:35:21;;;;;;;17.50;12.30;;;;;;;;;;106123;1287;64850;-30
2021/12/14 01:37:59;;;;;;;16.20;11.70;;;;;;;;;;106148;1288;64768;-30
2021/12/14 01:43:13;;;;;;;15.70;11.90;;;;;;;;;;106132;1288;64844;-28
2021/12/14 01:45:40;;;;;;;17.80;12.30;;;;;;;;;;105961;1287;64850;-29
2021/12/14 01:48:08;;;;;;;17.30;12.20;;;;;;;;;;106212;1281;64876;-32
2021/12/14 01:50:38;;;;;;;16.60;12.50;;;;;;;;;;106177;1286;64751;-29
2021/12/14 01:53:06;;;;;;;17.30;12.10;;;;;;;;;;106132;1287;64947;-29
2021/12/14 01:55:34;;;;;;;17.70;12.50;;;;;;;;;;106139;1289;64735;-34
2021/12/14 01:58:04;;;;;;;16.10;12.00;;;;;;;;;;106182;1290;64729;-32
2021/12/14 02:01:04;;;;;;;16.90;12.40;;;;;;;;;;106208;1287;64835;-30
2021/12/14 02:03:33;;;;;;;16.70;12.00;;;;;;;;;;105774;1287;64961;-29
2021/12/14 02:06:00;;;;;;;18.00;12.20;;;;;;;;;;106180;1285;64736;-29
2021/12/14 02:08:29;;;;;;;16.90;12.20;;;;;;;;;;106202;1286;64845;-28
2021/12/14 02:10:57;;;;;;;16.00;11.30;;;;;;;;;;106199;1288;64797;-29
2021/12/14 02:14:01;;;;;;;16.60;11.40;;;;;;;;;;106156;1278;64749;-31
2021/12/14 02:16:28;;;;;;;15.60;11.30;;;;;;;;;;106216;1288;64719;-31
2021/12/14 02:19:05;;;;;;;16.00;12.10;;;;;;;;;;106203;1284;64818;-31
2021/12/14 02:21:52;;;;;;;16.70;11.70;;;;;;;;;;106184;1287;64749;-31
2021/12/14 02:24:39;;;;;;;16.40;11.50;;;;;;;;;;106196;1288;64904;-31
2021/12/14 02:27:06;;;;;;;16.80;12.10;;;;;;;;;;106201;1287;64844;-32
2021/12/14 02:29:40;;;;;;;16.60;12.00;;;;;;;;;;106220;1287;64777;-30
2021/12/14 02:32:07;;;;;;;;;;;;;;;;;;106203;1289;64775;-29
2021/12/14 02:34:38;;;;;;;15.80;10.80;;;;;;;;;;106198;1286;64776;-28
2021/12/14 02:37:05;;;;;;;16.30;11.50;;;;;;;;;;106214;1285;64888;-30
2021/12/14 02:40:02;;;;;;;17.60;12.20;;;;;;;;;;106100;1288;64883;-30
2021/12/14 02:42:24;;;;;;;16.70;11.80;;;;;;;;;;106238;1287;64788;-30
2021/12/14 02:44:53;;;;;;;17.10;11.60;;;;;;;;;;106173;1287;64752;-30
2021/12/14 02:47:21;;;;;;;17.50;12.10;;;;;;;;;;106178;1285;65390;-28
2021/12/14 02:49:50;;;;;;;16.50;12.10;;;;;;;;;;106200;1287;64880;-29
2021/12/14 02:52:25;;;;;;;17.50;11.40;;;;;;;;;;106218;1288;64744;-30
2021/12/14 02:54:56;;;;;;;17.30;11.60;;;;;;;;;;106218;1287;64857;-29
2021/12/14 02:57:25;;;;;;;15.10;11.70;;;;;;;;;;106214;1288;64973;-42
2021/12/14 02:59:53;;;;;;;16.00;11.50;;;;;;;;;;106208;1288;64739;-38
2021/12/14 03:02:25;;;;;;;17.40;11.90;;;;;;;;;;106229;1287;64755;-30
2021/12/14 03:05:09;;;;;;;15.10;11.30;;;;;;;;;;106229;1289;64806;-30
2021/12/14 03:07:40;;;;;;;16.00;10.60;;;;;;;;;;106209;1286;64927;-29
2021/12/14 03:12:46;;;;;;;17.40;11.70;;;;;;;;;;106187;1289;64701;-30
2021/12/14 03:15:24;;;;;;;16.80;11.00;;;;;;;;;;106093;1288;64847;-28
2021/12/14 03:17:54;;;;;;;16.70;11.90;;;;;;;;;;106220;1285;64839;-29
2021/12/14 03:20:23;;;;;;;15.30;11.10;;;;;;;;;;106206;1285;64945;-28
2021/12/14 03:23:09;;;;;;;16.30;11.80;;;;;;;;;;106205;1287;65513;-29
2021/12/14 03:25:38;;;;;;;17.80;11.90;;;;;;;;;;106197;1286;64987;-27
2021/12/14 03:28:06;;;;;;;17.70;12.00;;;;;;;;;;106291;1278;64873;-28
2021/12/14 03:30:35;;;;;;;15.10;11.10;;;;;;;;;;106215;1285;64837;-28
2021/12/14 03:33:07;;;;;;;15.10;11.00;;;;;;;;;;106190;1285;64862;-30
2021/12/14 03:35:37;;;;;;;16.00;11.40;;;;;;;;;;106172;1287;64895;-31
2021/12/14 03:38:18;;;;;;;17.00;12.10;;;;;;;;;;106213;1287;64775;-31
2021/12/14 03:40:53;;;;;;;15.80;11.90;;;;;;;;;;106214;1287;65423;-30
2021/12/14 03:43:21;;;;;;;17.00;11.70;;;;;;;;;;106233;1287;64723;-29
2021/12/14 03:45:48;;;;;;;15.80;11.80;;;;;;;;;;106187;1286;64894;-30
2021/12/14 03:48:16;;;;;;;15.00;11.60;;;;;;;;;;106103;1288;64844;-39
2021/12/14 03:50:43;;;;;;;15.10;11.10;;;;;;;;;;106214;1291;64917;-30
2021/12/14 03:53:11;;;;;;;15.70;11.10;;;;;;;;;;106197;1286;64700;-30
2021/12/14 03:55:44;;;;;;;14.10;10.30;;;;;;;;;;106187;1287;64942;-30
2021/12/14 03:58:15;;;;;;;14.20;10.40;;;;;;;;;;106230;1288;64823;-28
2021/12/14 04:00:48;;;;;;;15.90;11.40;;;;;;;;;;106202;1287;64853;-28
2021/12/14 04:03:16;;;;;;;15.40;11.10;;;;;;;;;;106263;1286;64856;-28
2021/12/14 04:05:44;;;;;;;14.10;10.70;;;;;;;;;;106245;1286;64856;-29
2021/12/14 04:08:12;;;;;;;15.70;10.30;;;;;;;;;;106252;1286;64851;-30
2021/12/14 04:10:40;;;;;;;15.40;10.80;;;;;;;;;;106224;1286;64776;-30
2021/12/14 04:13:08;;;;;;;14.30;10.60;;;;;;;;;;106221;1286;64883;-30
2021/12/14 04:15:35;;;;;;;14.70;11.10;;;;;;;;;;106178;1288;64892;-30
2021/12/14 04:18:02;;;;;;;15.40;10.20;;;;;;;;;;106179;1287;64952;-29
2021/12/14 04:20:36;;;;;;;13.60;10.00;;;;;;;;;;106227;1288;64838;-30
2021/12/14 04:23:07;;;;;;;14.20;9.70;;;;;;;;;;106222;1287;64778;-29
2021/12/14 04:25:34;;;;;;;13.10;10.10;;;;;;;;;;106191;1287;64851;-31
2021/12/14 04:28:05;;;;;;;15.30;10.60;;;;;;;;;;106180;1287;64734;-30
2021/12/14 04:30:33;;;;;;;15.40;10.40;;;;;;;;;;106225;1287;64846;-30
2021/12/14 04:33:02;;;;;;;13.10;9.70;;;;;;;;;;106179;1289;65471;-29
2021/12/14 04:35:33;;;;;;;14.40;10.00;;;;;;;;;;106203;1288;64749;-29
2021/12/14 04:38:07;;;;;;;13.40;9.70;;;;;;;;;;106249;1288;64897;-29
2021/12/14 04:54:11;;;;;;;13.70;10.40;;;;;;;;;;106199;1288;64705;-28
2021/12/14 04:56:41;;;;;;;14.10;9.70;;;;;;;;;;106171;1287;64944;-30
2021/12/14 04:59:11;;;;;;;13.30;10.00;;;;;;;;;;106195;1288;64738;-29
2021/12/14 05:01:40;;;;;;;12.90;9.70;;;;;;;;;;106201;1287;64870;-29
2021/12/14 05:04:09;;;;;;;14.00;10.10;;;;;;;;;;106179;1286;64901;-29
2021/12/14 05:06:47;;;;;;;12.80;9.30;;;;;;;;;;106174;1288;64826;-29
2021/12/14 05:09:23;;;;;;;13.80;9.90;;;;;;;;;;106233;1280;64738;-31
2021/12/14 05:11:55;;;;;;;13.00;9.50;;;;;;;;;;106181;1291;64981;-31
2021/12/14 05:14:23;;;;;;;14.70;10.40;;;;;;;;;;106249;1289;64813;-30
2021/12/14 05:16:54;;;;;;;14.90;10.60;;;;;;;;;;106225;1289;64817;-30
2021/12/14 05:19:23;;;;;;;13.40;9.80;;;;;;;;;;106227;1287;65475;-30
2021/12/14 05:21:50;;;;;;;13.50;9.50;;;;;;;;;;106220;1288;64915;-30
2021/12/14 05:24:19;;;;;;;13.90;10.10;;;;;;;;;;106202;1287;64741;-28
2021/12/14 05:26:48;;;;;;;13.20;9.40;;;;;;;;;;106218;1286;65502;-29
2021/12/14 05:29:16;;;;;;;13.60;9.80;;;;;;;;;;106247;1287;64822;-29
2021/12/14 05:31:44;;;;;;;13.70;9.60;;;;;;;;;;106199;1286;64924;-30
2021/12/14 05:34:11;;;;;;;13.20;9.80;;;;;;;;;;106197;1288;64696;-29
2021/12/14 05:36:41;;;;;;;13.40;9.90;;;;;;;;;;106187;1287;64841;-29
2021/12/14 05:39:36;;;;;;;13.30;9.70;;;;;;;;;;106163;1288;64847;-28
2021/12/14 05:44:36;;;;;;;13.60;9.70;;;;;;;;;;106167;1289;64735;-28
2021/12/14 05:47:05;;;;;;;13.10;9.80;;;;;;;;;;106184;1289;64838;-30
2021/12/14 05:49:35;;;;;;;13.90;9.40;;;;;;;;;;106207;1289;64761;-29
2021/12/14 05:52:06;;;;;;;12.60;9.50;;;;;;;;;;106209;1288;64915;-32
2021/12/14 05:54:34;;;;;;;11.60;9.30;;;;;;;;;;106229;1288;64739;-30
2021/12/14 05:57:03;;;;;;;12.70;9.20;;;;;;;;;;106173;1288;64861;-30
2021/12/14 05:59:33;;;;;;;13.00;9.40;;;;;;;;;;106213;1288;64823;-29
2021/12/14 06:02:02;;;;;;;13.10;9.40;;;;;;;;;;106197;1289;64875;-30
2021/12/14 06:04:33;;;;;;;13.70;9.20;;;;;;;;;;106186;1289;64839;-29
2021/12/14 06:07:10;;;;;;;12.60;9.30;;;;;;;;;;106176;1287;64867;-30
2021/12/14 06:09:40;;;;;;;13.20;9.60;;;;;;;;;;106186;1287;64816;-29
2021/12/14 06:12:22;;;;;;;13.90;9.90;;;;;;;;;;106230;1286;64846;-28
2021/12/14 06:14:52;;;;;;;12.60;8.90;;;;;;;;;;106179;1286;64765;-31
2021/12/14 06:17:35;;;;;;;13.30;9.70;;;;;;;;;;106159;1282;64831;-28
2021/12/14 06:20:02;;;;;;;12.50;9.30;;;;;;;;;;106201;1290;64969;-30
2021/12/14 06:22:29;;;;;;;12.10;9.40;;;;;;;;;;106223;1287;64872;-30
2021/12/14 06:24:58;;;;;;;12.00;8.80;;;;;;;;;;106172;1287;64812;-30
2021/12/14 06:27:27;;;;;;;12.60;9.50;;;;;;;;;;106021;1287;204348;-30
2021/12/14 06:29:59;;;;;;;12.30;9.30;;;;;;;;;;106187;1291;64801;-29
2021/12/14 06:32:29;;;;;;;13.30;9.40;;;;;;;;;;106128;1287;64943;-30
2021/12/14 06:34:58;;;;;;;12.40;9.10;;;;;;;;;;106199;1291;64878;-31
2021/12/14 06:37:53;;;;;;;12.30;9.30;;;;;;;;;;106206;1287;64750;-28
2021/12/14 06:40:26;;;;;;;12.80;9.50;;;;;;;;;;106143;1289;64849;-29
2021/12/14 06:42:55;;;;;;;11.40;8.40;;;;;;;;;;106243;1289;64822;-29
2021/12/14 06:45:27;;;;;;;14.00;10.00;;;;;;;;;;106191;1290;64782;-29
2021/12/14 06:47:57;;;;;;;11.30;8.30;;;;;;;;;;106123;1291;64891;-29
2021/12/14 06:50:26;;;;;;;12.30;9.20;;;;;;;;;;106199;1288;64762;-35
2021/12/14 06:53:03;;;;;;;11.30;9.10;;;;;;;;;;106197;1285;64915;-29
2021/12/14 06:55:32;;;;;;;12.80;9.60;;;;;;;;;;106182;1288;64826;-28
2021/12/14 06:58:25;;;;;;;11.50;8.60;;;;;;;;;;106129;1285;64838;-30
2021/12/14 07:00:59;;;;;;;13.30;8.60;;;;;;;;;;106094;1289;64904;-30
2021/12/14 07:03:25;;;;;;;;;;;;;;;;;;106174;1288;64916;-29
2021/12/14 07:05:52;;;;;;;11.40;8.60;;;;;;;;;;106127;1289;64971;-29
2021/12/14 07:08:24;;;;;;;12.30;9.30;;;;;;;;;;106117;1289;64786;-30
2021/12/14 07:10:51;;;;;;;11.20;8.20;;;;;;;;;;106170;1288;64874;-30
2021/12/14 07:13:22;;;;;;;12.70;8.50;;;;;;;;;;106221;1289;64811;-33
2021/12/14 07:15:51;;;;;;;12.80;9.40;;;;;;;;;;106083;1289;64948;-30
2021/12/14 07:18:23;;;;;;;12.10;9.40;;;;;;;;;;106214;1286;64868;-30
2021/12/14 07:20:52;;;;;;;11.60;8.70;;;;;;;;;;106195;1290;64883;-30
2021/12/14 07:23:28;;;;;;;13.00;9.10;;;;;;;;;;106213;1286;64949;-31
2021/12/14 07:26:00;;;;;;;12.80;9.30;;;;;;;;;;106158;1288;64842;-29
2021/12/14 07:28:37;;;;;;;12.90;9.30;;;;;;;;;;106173;1289;65494;-29
2021/12/14 07:31:24;;;;;;;12.70;9.10;;;;;;;;;;106209;1285;65065;-28
2021/12/14 07:33:54;;;;;;;12.80;9.10;;;;;;;;;;106210;1286;64844;-29
2021/12/14 07:36:23;;;;;;;11.90;9.20;;;;;;;;;;106204;1285;64768;-29
2021/12/14 07:38:55;;;;;;;11.80;8.70;;;;;;;;;;106237;1286;64937;-29
2021/12/14 07:41:24;;;;;;;12.70;9.10;;;;;;;;;;106272;1288;65208;-30
2021/12/14 07:43:51;;;;;;;13.50;9.30;;;;;;;;;;106237;1285;64842;-30
2021/12/14 07:46:31;;;;;;;12.30;9.10;;;;;;;;;;106187;1287;64843;-33
2021/12/14 07:49:01;;;;;;;11.60;9.10;;;;;;;;;;106186;1291;64842;-29
2021/12/14 07:51:31;;;;;;;11.80;9.30;;;;;;;;;;106183;1289;64735;-30
2021/12/14 07:54:04;;;;;;;11.70;9.00;;;;;;;;;;106188;1289;64955;-30
2021/12/14 07:56:36;;;;;;;12.30;9.80;;;;;;;;;;106193;1289;64950;-29
2021/12/14 07:59:24;;;;;;;10.80;8.90;;;;;;;;;;106043;1286;64861;-29
2021/12/14 08:02:06;;;;;;;12.90;9.80;;;;;;;;;;106119;1288;64743;-29
2021/12/14 08:04:34;;;;;;;13.60;10.20;;;;;;;;;;106154;1281;64844;-28
2021/12/14 08:07:02;;;;;;;12.30;9.10;;;;;;;;;;106186;1289;65611;-29
2021/12/14 08:09:45;;;;;;;12.70;9.50;;;;;;;;;;106224;1287;64707;-28
2021/12/14 08:12:26;;;;;;;11.40;9.00;;;;;;;;;;106200;1289;65486;-29
2021/12/14 08:15:11;;;;;;;13.10;9.70;;;;;;;;;;106179;1289;64841;-29
2021/12/14 08:17:39;;;;;;;13.30;9.60;;;;;;;;;;106176;1285;64665;-30
2021/12/14 08:20:08;;;;;;;12.50;8.90;;;;;;;;;;106180;1284;64816;-31
2021/12/14 08:22:37;;;;;;;12.50;9.60;;;;;;;;;;106105;1291;64793;-30
2021/12/14 08:25:07;;;;;;;13.00;9.60;;;;;;;;;;106115;1288;64845;-31
2021/12/14 08:27:34;;;;;;;11.40;9.10;;;;;;;;;;106211;1286;64936;-27
2021/12/14 08:30:04;;;;;;;13.40;9.50;;;;;;;;;;106185;1287;64845;-28
2021/12/14 08:32:32;;;;;;;13.60;9.40;;;;;;;;;;106175;1288;64835;-31
2021/12/14 08:35:02;;;;;;;13.10;9.20;;;;;;;;;;106185;1282;64751;-31
2021/12/14 08:37:32;;;;;;;12.70;9.40;;;;;;;;;;106182;1289;64817;-31
2021/12/14 08:40:03;;;;;;;12.80;9.70;;;;;;;;;;106170;1289;64739;-31
2021/12/14 08:42:41;;;;;;;14.80;10.90;;;;;;;;;;106209;1289;64868;-28
2021/12/14 08:45:25;;;;;;;12.10;9.50;;;;;;;;;;106192;1289;64795;-32
2021/12/14 08:47:54;;;;;;;13.90;9.70;;;;;;;;;;106206;1285;65394;-29
2021/12/14 08:50:21;;;;;;;12.40;9.50;;;;;;;;;;106167;1289;64952;-30
2021/12/14 08:52:50;;;;;;;12.90;9.40;;;;;;;;;;106185;1289;64822;-32
2021/12/14 08:55:18;;;;;;;12.40;9.40;;;;;;;;;;106174;1284;64970;-31
2021/12/14 08:57:46;;;;;;;14.00;9.80;;;;;;;;;;106254;1285;64849;-30
2021/12/14 09:00:20;;;;;;;13.20;10.00;;;;;;;;;;106113;1290;64925;-30
2021/12/14 09:02:52;;;;;;;14.60;10.20;;;;;;;;;;106096;1288;65180;-29
2021/12/14 09:05:23;;;;;;;12.40;9.30;;;;;;;;;;106211;1289;64913;-31
2021/12/14 09:07:51;;;;;;;12.90;10.40;;;;;;;;;;106254;1289;64746;-29
2021/12/14 09:10:20;;;;;;;13.90;10.10;;;;;;;;;;106144;1285;64758;-28
2021/12/14 09:12:47;;;;;;;13.60;10.30;;;;;;;;;;106174;1286;64823;-30
2021/12/14 09:15:20;;;;;;;13.80;10.80;;;;;;;;;;106216;1285;64841;-32
2021/12/14 09:17:48;;;;;;;14.40;11.10;;;;;;;;;;106149;1290;64703;-29
2021/12/14 09:20:19;;;;;;;14.00;10.60;;;;;;;;;;106207;1289;64827;-31
2021/12/14 09:22:49;;;;;;;14.90;10.60;;;;;;;;;;106180;1289;64871;-29
2021/12/14 09:25:18;;;;;;;15.30;11.10;;;;;;;;;;106217;1287;64933;-29
2021/12/14 09:27:46;;;;;;;14.40;10.50;;;;;;;;;;106169;1287;64837;-29
2021/12/14 09:30:16;;;;;;;13.90;10.30;;;;;;;;;;106105;1289;64841;-28
2021/12/14 09:32:44;;;;;;;14.70;11.00;;;;;;;;;;106211;1288;64741;-30
2021/12/14 09:35:14;;;;;;;13.30;10.60;;;;;;;;;;106185;1289;64948;-29
2021/12/14 09:37:41;;;;;;;15.70;10.80;;;;;;;;;;106153;1289;64777;-27
2021/12/14 09:40:12;;;;;;;17.30;11.80;;;;;;;;;;106151;1286;65001;-37
2021/12/14 09:42:40;;;;;;;17.10;11.70;;;;;;;;;;106268;1288;64870;-30
2021/12/14 09:45:09;;;;;;;16.60;11.30;;;;;;;;;;106123;1288;64846;-32
2021/12/14 09:47:36;;;;;;;16.60;11.30;;;;;;;;;;106125;1289;66731;-32
2021/12/14 09:50:06;;;;;;;16.50;12.40;;;;;;;;;;106128;1289;64885;-29
2021/12/14 09:52:36;;;;;;;16.00;11.80;;;;;;;;;;106142;1287;64688;-33
2021/12/14 09:55:07;;;;;;;15.50;11.00;;;;;;;;;;106218;1286;64840;-31
2021/12/14 09:57:37;;;;;;;16.50;12.00;;;;;;;;;;106242;1289;64768;-32
2021/12/14 10:00:09;;;;;;;15.70;11.30;;;;;;;;;;106198;1285;64856;-29
2021/12/14 10:02:38;;;;;;;15.90;11.70;;;;;;;;;;106138;1289;64990;-28
2021/12/14 10:05:08;;;;;;;16.70;12.20;;;;;;;;;;106141;1290;64730;-30
2021/12/14 10:07:35;;;;;;;17.40;11.50;;;;;;;;;;106197;1288;64744;-31
2021/12/14 10:10:04;;;;;;;16.70;12.50;;;;;;;;;;106116;1289;64874;-27
2021/12/14 10:12:49;;;;;;;16.40;12.70;;;;;;;;;;106149;1289;64857;-28
2021/12/14 10:15:28;;;;;;;16.50;12.40;;;;;;;;;;106169;1289;64968;-28
2021/12/14 10:17:58;;;;;;;17.00;12.40;;;;;;;;;;106106;1290;64785;-30
2021/12/14 10:20:28;;;;;;;15.80;11.50;;;;;;;;;;105999;1292;64915;-29
2021/12/14 10:22:55;;;;;;;14.60;11.00;;;;;;;;;;106070;1290;64916;-29
2021/12/14 10:25:24;;;;;;;17.10;13.20;;;;;;;;;;106232;1289;64851;-29
2021/12/14 10:27:53;;;;;;;17.60;12.00;;;;;;;;;;106100;1290;64837;-31
2021/12/14 10:30:23;;;;;;;15.80;11.80;;;;;;;;;;106136;1291;64865;-29
2021/12/14 10:32:51;;;;;;;18.00;13.80;;;;;;;;;;106144;1286;64850;-32
2021/12/14 10:35:22;;;;;;;19.20;13.30;;;;;;;;;;106138;1289;64836;-28
2021/12/14 10:43:12;;;;;;;17.10;12.70;;;;;;;;;;106185;1286;64805;-28
2021/12/14 10:45:42;;;;;;;16.90;13.00;;;;;;;;;;106221;1289;64776;-30
2021/12/14 10:48:09;;;;;;;17.00;12.70;;;;;;;;;;106137;1289;64782;-27
2021/12/14 10:50:38;;;;;;;20.00;13.90;;;;;;;;;;106164;1288;64987;-29
2021/12/14 10:53:07;;;;;;;16.90;13.30;;;;;;;;;;106154;1292;64742;-30
2021/12/14 10:55:45;;;;;;;16.60;13.00;;;;;;;;;;106033;1291;64927;-31
2021/12/14 10:58:15;;;;;;;17.70;12.60;;;;;;;;;;106104;1286;64712;-30
2021/12/14 11:00:45;;;;;;;17.10;12.90;;;;;;;;;;106173;1289;64772;-44
2021/12/14 11:03:16;;;;;;;17.00;12.80;;;;;;;;;;106191;1285;64928;-31
2021/12/14 11:05:46;;;;;;;18.00;13.30;;;;;;;;;;106163;1286;64838;-32
2021/12/14 11:08:59;;;;;;;17.90;12.80;;;;;;;;;;106160;1290;64779;-29
2021/12/14 11:11:15;;;;;;;15.80;12.40;;;;;;;;;;106094;1288;64813;-29
2021/12/14 11:13:44;;;;;;;16.40;12.70;;;;;;;;;;106161;1285;64803;-33
2021/12/14 11:16:19;;;;;;;17.50;12.50;;;;;;;;;;106228;1285;64912;-28
2021/12/14 11:18:47;;;;;;;18.20;13.20;;;;;;;;;;106161;1290;64704;-29
2021/12/14 11:21:17;;;;;;;19.40;12.40;;;;;;;;;;106162;1287;64885;-30
2021/12/14 11:23:46;;;;;;;17.80;13.50;;;;;;;;;;106168;1290;64768;-28
2021/12/14 11:26:39;;;;;;;18.00;12.80;;;;;;;;;;106243;1288;64915;-33
2021/12/14 11:29:09;;;;;;;;;;;;;;;;;;106051;1291;64709;-32
2021/12/14 11:31:49;;;;;;;27.90;20.40;;;;;;;;;;106188;1286;64984;-30
2021/12/14 11:34:26;;;;;;;21.50;15.90;;;;;;;;;;106213;1286;64873;-31
2021/12/14 11:37:02;;;;;;;21.80;15.50;;;;;;;;;;106183;1287;64849;-31
2021/12/14 11:39:34;;;;;;;24.00;17.30;;;;;;;;;;106231;1289;64965;-32
2021/12/14 11:42:04;;;;;;;25.60;18.00;;;;;;;;;;106212;1288;65002;-26
2021/12/14 11:44:33;;;;;;;23.20;16.90;;;;;;;;;;106173;1288;64787;-29
2021/12/14 11:47:41;;;;;;;23.40;16.90;;;;;;;;;;106274;1289;64834;-30
2021/12/14 11:50:27;;;;;;;26.00;17.90;;;;;;;;;;106178;1289;64877;-29
2021/12/14 11:53:00;;;;;;;24.80;17.40;;;;;;;;;;106151;1284;64861;-28
2021/12/14 11:55:33;;;;;;;23.50;15.90;;;;;;;;;;106133;1287;64821;-28
2021/12/14 11:58:20;;;;;;;20.50;15.20;;;;;;;;;;106111;1290;64856;-29
2021/12/14 12:01:01;;;;;;;21.30;14.60;;;;;;;;;;106008;1288;64835;-29
2021/12/14 12:03:34;;;;;;;32.50;22.00;;;;;;;;;;106179;1286;65000;-28
2021/12/14 12:06:08;;;;;;;26.00;18.40;;;;;;;;;;106124;1290;64839;-31
2021/12/14 12:11:24;;;;;;;26.10;18.50;;;;;;;;;;106203;1285;64897;-35
2021/12/14 12:13:51;;;;;;;28.20;20.50;;;;;;;;;;106165;1289;64909;-32
2021/12/14 12:16:21;;;;;;;27.40;19.70;;;;;;;;;;106193;1289;64852;-30
2021/12/14 12:19:21;;;;;;;26.80;19.60;;;;;;;;;;106214;1289;64856;-32
2021/12/14 12:21:49;;;;;;;27.40;18.60;;;;;;;;;;105930;1290;64731;-30
2021/12/14 12:24:30;;;;;;;25.10;17.30;;;;;;;;;;106208;1289;64761;-31
2021/12/14 12:27:18;;;;;;;22.10;17.30;;;;;;;;;;106221;1287;64846;-31
2021/12/14 12:29:46;;;;;;;28.40;18.50;;;;;;;;;;106256;1290;64746;-30
2021/12/14 12:32:23;;;;;;;70.90;37.10;;;;;;;;;;105988;1288;64856;-32
2021/12/14 12:34:50;;;;;;;68.20;39.10;;;;;;;;;;106131;1288;64855;-31
2021/12/14 12:37:33;;;;;;;63.10;37.00;;;;;;;;;;106234;1289;64708;-31
2021/12/14 12:40:00;;;;;;;54.10;30.90;;;;;;;;;;106189;1289;65410;-32
2021/12/14 12:42:27;;;;;;;52.60;32.40;;;;;;;;;;106196;1286;64765;-32
2021/12/14 12:44:53;;;;;;;52.30;30.20;;;;;;;;;;106098;1290;64742;-29
2021/12/14 12:47:22;;;;;;;50.70;29.80;;;;;;;;;;106208;1289;64912;-28
2021/12/14 12:49:56;;;;;;;45.20;28.10;;;;;;;;;;106203;1285;64735;-29
2021/12/14 12:52:30;;;;;;;44.80;29.20;;;;;;;;;;106164;1288;64808;-36
2021/12/14 12:55:00;;;;;;;46.50;28.70;;;;;;;;;;106214;1287;64920;-29
2021/12/14 12:57:31;;;;;;;46.70;27.40;;;;;;;;;;106018;1290;64812;-32
2021/12/14 12:59:59;;;;;;;40.10;25.50;;;;;;;;;;106244;1289;64873;-29
2021/12/14 13:02:27;;;;;;;42.10;27.20;;;;;;;;;;106142;1287;64850;-36
2021/12/14 13:04:56;;;;;;;35.70;25.40;;;;;;;;;;106221;1286;64855;-31
2021/12/14 13:07:36;;;;;;;36.90;23.40;;;;;;;;;;106150;1291;64698;-33
2021/12/14 13:10:03;;;;;;;34.80;23.80;;;;;;;;;;106128;1287;64752;-30
2021/12/14 13:12:41;;;;;;;36.60;24.10;;;;;;;;;;106105;1288;64935;-32
2021/12/14 13:15:27;;;;;;;30.40;20.70;;;;;;;;;;106207;1288;64924;-30
2021/12/14 13:18:13;;;;;;;34.30;23.20;;;;;;;;;;106202;1288;64748;-31
2021/12/14 13:20:40;;;;;;;34.30;24.60;;;;;;;;;;106153;1289;64861;-30
2021/12/14 13:23:07;;;;;;;32.00;22.10;;;;;;;;;;106166;1289;64956;-42
2021/12/14 13:25:36;;;;;;;33.20;21.60;;;;;;;;;;106150;1287;64874;-32
2021/12/14 13:28:03;;;;;;;29.40;20.70;;;;;;;;;;106257;1289;64816;-31
2021/12/14 13:30:30;;;;;;;30.90;21.00;;;;;;;;;;106151;1290;64757;-29
2021/12/14 13:32:57;;;;;;;35.80;25.10;;;;;;;;;;106218;1288;64750;-33
2021/12/14 13:35:28;;;;;;;29.50;20.80;;;;;;;;;;106114;1291;64834;-34
2021/12/14 13:38:00;;;;;;;29.90;21.30;;;;;;;;;;106205;1288;65652;-32
2021/12/14 13:40:34;;;;;;;30.30;20.70;;;;;;;;;;106388;1288;64853;-29
2021/12/14 13:43:03;;;;;;;29.40;20.70;;;;;;;;;;106198;1286;64838;-42
2021/12/14 13:45:33;;;;;;;27.60;19.60;;;;;;;;;;106338;1286;65502;-33
2021/12/14 13:48:01;;;;;;;33.50;23.40;;;;;;;;;;106245;1285;64790;-32
2021/12/14 13:50:31;;;;;;;27.00;19.70;;;;;;;;;;106079;1287;65033;-30
2021/12/14 13:52:59;;;;;;;27.10;19.10;;;;;;;;;;106234;1285;64732;-32
2021/12/14 13:55:26;;;;;;;28.10;19.80;;;;;;;;;;106197;1273;64870;-31
2021/12/14 13:57:55;;;;;;;27.50;18.80;;;;;;;;;;106251;1285;64739;-31
2021/12/14 14:00:34;;;;;;;28.70;20.50;;;;;;;;;;106126;1287;64840;-29
2021/12/14 14:03:01;;;;;;;26.20;18.50;;;;;;;;;;106080;1288;64751;-31
2021/12/14 14:05:29;;;;;;;26.50;19.00;;;;;;;;;;106216;1287;64871;-35
2021/12/14 14:07:58;;;;;;;27.80;21.10;;;;;;;;;;106221;1286;64723;-31
2021/12/14 14:10:25;;;;;;;25.80;19.70;;;;;;;;;;106197;1289;64773;-31
2021/12/14 14:12:58;;;;;;;26.90;19.40;;;;;;;;;;106081;1287;64777;-29
2021/12/14 14:15:31;;;;;;;27.20;19.00;;;;;;;;;;106198;1286;66313;-30
2021/12/14 14:17:59;;;;;;;26.00;18.50;;;;;;;;;;106115;1287;64915;-32
2021/12/14 14:20:30;;;;;;;26.30;19.20;;;;;;;;;;106195;1285;64931;-30
2021/12/14 14:23:26;;;;;;;26.20;19.80;;;;;;;;;;106171;1290;64934;-33
2021/12/14 14:25:58;;;;;;;26.10;20.00;;;;;;;;;;106007;1275;64853;-31
2021/12/14 14:28:27;;;;;;;28.80;19.60;;;;;;;;;;105831;1285;503555;-39
2021/12/14 14:30:55;;;;;;;26.00;18.80;;;;;;;;;;106114;1291;64834;-29
2021/12/14 14:33:31;;;;;;;27.50;20.20;;;;;;;;;;106180;1287;64932;-29
2021/12/14 14:36:00;;;;;;;26.50;19.00;;;;;;;;;;106126;1287;64842;-30
2021/12/14 14:38:28;;;;;;;25.80;19.00;;;;;;;;;;106351;1285;64796;-30
2021/12/14 14:40:58;;;;;;;25.40;19.70;;;;;;;;;;106188;1285;64760;-29
2021/12/14 14:43:43;;;;;;;26.40;19.20;;;;;;;;;;106402;1288;64907;-30
2021/12/14 14:46:12;;;;;;;25.10;19.40;;;;;;;;;;106351;1288;64941;-30
2021/12/14 14:48:39;;;;;;;24.40;18.60;;;;;;;;;;106122;1287;64886;-31
2021/12/14 14:51:07;;;;;;;26.30;19.40;;;;;;;;;;106243;1288;64847;-31
2021/12/14 14:53:36;;;;;;;25.20;18.80;;;;;;;;;;106187;1285;64749;-30
2021/12/14 14:56:12;;;;;;;25.10;18.80;;;;;;;;;;106215;1286;64844;-31
2021/12/14 14:58:42;;;;;;;25.30;19.10;;;;;;;;;;106166;1277;64880;-31
2021/12/14 15:01:13;;;;;;;27.50;20.40;;;;;;;;;;106131;1287;64946;-32
2021/12/14 15:03:43;;;;;;;26.10;19.10;;;;;;;;;;106206;1286;64765;-33
2021/12/14 15:06:22;;;;;;;27.40;19.90;;;;;;;;;;106159;1286;65486;-38
2021/12/14 15:08:52;;;;;;;27.90;19.30;;;;;;;;;;106162;1285;64862;-31
2021/12/14 15:11:38;;;;;;;27.30;19.90;;;;;;;;;;106170;1287;64739;-31